Time;durP1;ratioP1;P1;durP2;ratioP2;P2;SDS_P1;SDS_P2;PMS_P1;PMS_P2;Temp;Humidity;BMP_temperature;BMP_pressure;BME280_temperature;BME280_humidity;BME280_pressure;Samples;Min_cycle;Max_cycle;Signal;HPM_P1;HPM_P2
2022/01/20 00:03:32;;;;;;;0.80;0.80;;;3.30;99.90;;;;;;5075423;28;20055;-85
2022/01/20 00:27:49;;;;;;;;;;;3.20;99.90;;;;;;5073583;28;20211;-84
2022/01/20 00:33:22;;;;;;;1.80;1.65;;;3.10;99.90;;;;;;5043059;28;20045;-86
2022/01/20 00:38:20;;;;;;;0.70;0.70;;;3.00;99.90;;;;;;5090773;28;20064;-85
2022/01/20 00:40:46;;;;;;;0.80;0.80;;;2.90;99.90;;;;;;5068729;28;20052;-85
2022/01/20 00:43:12;;;;;;;0.80;0.80;;;3.00;99.90;;;;;;5070565;28;20041;-84
2022/01/20 00:45:37;;;;;;;0.85;0.85;;;3.00;99.90;;;;;;5059585;28;20037;-85
2022/01/20 00:48:03;;;;;;;0.80;0.80;;;3.00;99.90;;;;;;5068958;28;20557;-85
2022/01/20 00:50:28;;;;;;;0.77;0.77;;;3.10;99.90;;;;;;5074172;28;20120;-85
2022/01/20 00:52:54;;;;;;;0.80;0.80;;;3.10;99.90;;;;;;5055932;28;20041;-85
2022/01/20 00:55:20;;;;;;;6.85;1.75;;;3.20;99.90;;;;;;5046488;28;20120;-86
2022/01/20 00:57:47;;;;;;;0.90;0.90;;;3.30;99.90;;;;;;5052230;28;20148;-85
2022/01/20 01:00:14;;;;;;;1.05;1.05;;;3.20;99.90;;;;;;5066744;28;20115;-84
2022/01/20 01:02:40;;;;;;;23.75;1.63;;;3.20;99.90;;;;;;5059342;28;20041;-84
2022/01/20 01:05:08;;;;;;;0.70;0.70;;;3.20;99.90;;;;;;5075200;28;20045;-85
2022/01/20 01:10:08;;;;;;;3.35;2.08;;;3.10;99.90;;;;;;5079506;28;20070;-84
2022/01/20 01:15:19;;;;;;;0.80;0.80;;;3.10;99.90;;;;;;5077350;28;20112;-84
2022/01/20 01:20:32;;;;;;;0.70;0.70;;;3.20;99.90;;;;;;5078050;28;20095;-84
2022/01/20 01:22:58;;;;;;;1.00;1.00;;;3.30;99.90;;;;;;5080991;28;20269;-83
2022/01/20 01:25:24;;;;;;;0.70;0.70;;;3.30;99.90;;;;;;5065508;28;20048;-84
2022/01/20 01:27:50;;;;;;;0.95;0.95;;;3.30;99.90;;;;;;5055241;28;20045;-83
2022/01/20 01:32:55;;;;;;;0.70;0.70;;;3.10;99.90;;;;;;5080019;28;20093;-84
2022/01/20 01:35:26;;;;;;;0.70;0.70;;;3.00;99.90;;;;;;5052261;28;20176;-84
2022/01/20 01:40:25;;;;;;;0.70;0.70;;;2.80;99.90;;;;;;5077645;28;20048;-84
2022/01/20 01:42:52;;;;;;;0.80;0.80;;;2.70;99.90;;;;;;5056899;28;20036;-84
2022/01/20 01:45:20;;;;;;;0.80;0.80;;;2.70;99.90;;;;;;5061857;28;20063;-84
2022/01/20 01:47:47;;;;;;;0.80;0.80;;;2.60;99.90;;;;;;5063012;28;20056;-84
2022/01/20 01:50:13;;;;;;;0.90;0.90;;;2.40;99.90;;;;;;5074889;28;20037;-84
2022/01/20 01:52:39;;;;;;;0.88;0.88;;;2.40;99.90;;;;;;5065282;28;20076;-84
2022/01/20 01:55:05;;;;;;;0.70;0.70;;;2.30;99.90;;;;;;5079478;28;20047;-84
2022/01/20 01:57:31;;;;;;;0.70;0.70;;;2.30;99.90;;;;;;5062711;28;20127;-84
2022/01/20 01:59:57;;;;;;;0.80;0.80;;;2.30;99.90;;;;;;5077351;28;20493;-83
2022/01/20 02:02:23;;;;;;;0.80;0.80;;;2.30;99.90;;;;;;5053085;28;20037;-84
2022/01/20 02:04:49;;;;;;;0.90;0.90;;;2.30;99.90;;;;;;5059289;28;20045;-84
2022/01/20 02:18:36;;;;;;;0.90;0.90;;;2.80;99.90;;;;;;5080766;28;20138;-84
2022/01/20 02:20:59;;;;;;;0.80;0.80;;;2.90;99.90;;;;;;5075282;28;20052;-84
2022/01/20 02:23:26;;;;;;;0.70;0.70;;;2.80;99.90;;;;;;5075776;28;20037;-84
2022/01/20 02:25:52;;;;;;;2.35;2.00;;;2.80;99.90;;;;;;5057983;28;20733;-83
2022/01/20 02:28:17;;;;;;;0.80;0.80;;;3.00;99.90;;;;;;5077883;28;20040;-82
2022/01/20 02:30:43;;;;;;;0.70;0.70;;;3.10;99.90;;;;;;5072928;28;20041;-84
2022/01/20 02:33:16;;;;;;;0.63;0.63;;;2.90;99.90;;;;;;5071492;28;20037;-84
2022/01/20 02:35:51;;;;;;;0.90;0.90;;;2.80;99.90;;;;;;5059592;28;20401;-84
2022/01/20 02:38:42;;;;;;;1.02;1.02;;;2.60;99.90;;;;;;5060381;28;20068;-84
2022/01/20 02:46:34;;;;;;;0.77;0.77;;;2.50;99.90;;;;;;5073347;28;20078;-85
2022/01/20 02:48:59;;;;;;;0.80;0.80;;;2.30;99.90;;;;;;5072139;28;20049;-84
2022/01/20 02:51:27;;;;;;;0.70;0.70;;;2.30;99.90;;;;;;5057510;28;20044;-85
2022/01/20 02:53:53;;;;;;;2.00;1.45;;;2.30;99.90;;;;;;5075193;28;20068;-84
2022/01/20 02:56:19;;;;;;;0.82;0.82;;;2.30;99.90;;;;;;5076146;28;20524;-84
2022/01/20 02:58:46;;;;;;;0.80;0.80;;;2.30;99.90;;;;;;5054741;28;20060;-84
2022/01/20 03:01:11;;;;;;;0.80;0.80;;;2.30;99.90;;;;;;5061260;28;20056;-84
2022/01/20 03:03:37;;;;;;;3.60;3.33;;;2.40;99.90;;;;;;5058327;28;20048;-84
2022/01/20 03:06:04;;;;;;;1.02;1.02;;;2.50;99.90;;;;;;5071401;28;20044;-84
2022/01/20 03:08:30;;;;;;;2.90;1.90;;;2.70;99.90;;;;;;5077268;28;20045;-84
2022/01/20 03:10:56;;;;;;;1.20;1.20;;;2.60;99.90;;;;;;5070765;28;20053;-83
2022/01/20 03:13:21;;;;;;;0.80;0.80;;;2.80;99.90;;;;;;5076165;28;20037;-84
2022/01/20 03:15:47;;;;;;;1.45;1.35;;;2.80;99.90;;;;;;5058508;28;20052;-85
2022/01/20 03:18:13;;;;;;;2.15;1.27;;;2.80;99.90;;;;;;5080330;28;20123;-84
2022/01/20 03:20:39;;;;;;;2.70;2.22;;;2.80;99.90;;;;;;5061792;28;20041;-85
2022/01/20 03:23:05;;;;;;;0.80;0.80;;;2.80;99.90;;;;;;5072079;28;20128;-85
2022/01/20 03:25:30;;;;;;;0.80;0.80;;;2.80;99.90;;;;;;5078117;28;20043;-84
2022/01/20 03:27:57;;;;;;;0.77;0.77;;;2.80;99.90;;;;;;5073965;28;20059;-84
2022/01/20 03:30:23;;;;;;;0.80;0.80;;;2.90;99.90;;;;;;5059575;28;20100;-84
2022/01/20 03:32:49;;;;;;;0.73;0.73;;;2.80;99.90;;;;;;5059375;28;20110;-84
2022/01/20 03:35:16;;;;;;;1.25;1.15;;;2.80;99.90;;;;;;5054332;28;20037;-83
2022/01/20 03:37:42;;;;;;;0.77;0.77;;;2.80;99.90;;;;;;5071821;28;20044;-85
2022/01/20 03:40:08;;;;;;;0.80;0.80;;;2.70;99.90;;;;;;5052444;28;20048;-85
2022/01/20 03:42:35;;;;;;;2.55;2.35;;;2.70;99.90;;;;;;5074105;28;20039;-85
2022/01/20 03:45:01;;;;;;;0.80;0.80;;;2.70;99.90;;;;;;5075941;28;20749;-84
2022/01/20 03:47:26;;;;;;;4.53;1.35;;;2.70;99.90;;;;;;5080384;28;20063;-83
2022/01/20 03:52:28;;;;;;;0.77;0.77;;;2.80;99.90;;;;;;5062946;28;20053;-84
2022/01/20 03:54:54;;;;;;;0.80;0.80;;;2.80;99.90;;;;;;5075110;28;20037;-83
2022/01/20 03:57:20;;;;;;;1.30;1.20;;;2.80;99.90;;;;;;5070882;28;20055;-86
2022/01/20 03:59:46;;;;;;;0.88;0.88;;;2.80;99.90;;;;;;5079463;28;20052;-85
2022/01/20 04:02:12;;;;;;;0.80;0.80;;;2.90;99.90;;;;;;5072479;28;20073;-84
2022/01/20 04:04:38;;;;;;;2.55;2.35;;;2.80;99.90;;;;;;5077044;28;20051;-85
2022/01/20 04:07:05;;;;;;;0.88;0.88;;;2.70;99.90;;;;;;5060711;28;20036;-85
2022/01/20 04:09:31;;;;;;;0.90;0.90;;;2.70;99.90;;;;;;5058540;28;20051;-86
2022/01/20 04:11:57;;;;;;;0.70;0.70;;;2.70;99.90;;;;;;5053664;28;20028;-86
2022/01/20 04:14:24;;;;;;;1.80;1.42;;;2.70;99.90;;;;;;5054896;28;20063;-85
2022/01/20 04:19:23;;;;;;;0.80;0.80;;;2.60;99.90;;;;;;5069230;28;20056;-85
2022/01/20 04:21:49;;;;;;;0.80;0.80;;;2.60;99.90;;;;;;5072774;28;20097;-85
2022/01/20 04:24:16;;;;;;;0.80;0.80;;;2.60;99.90;;;;;;5073746;28;20094;-84
2022/01/20 04:26:45;;;;;;;3.60;1.10;;;2.60;99.90;;;;;;5077560;28;20102;-84
2022/01/20 04:29:11;;;;;;;0.80;0.80;;;2.60;99.90;;;;;;5068993;28;20051;-84
2022/01/20 04:31:38;;;;;;;0.80;0.80;;;2.60;99.90;;;;;;5055647;28;20047;-85
2022/01/20 04:34:05;;;;;;;0.70;0.70;;;2.60;99.90;;;;;;5062792;28;20051;-86
2022/01/20 04:36:34;;;;;;;0.80;0.80;;;2.60;99.90;;;;;;5059908;28;20047;-86
2022/01/20 04:39:01;;;;;;;0.80;0.80;;;2.50;99.90;;;;;;5060017;28;20068;-85
2022/01/20 04:41:29;;;;;;;11.93;1.50;;;2.60;99.90;;;;;;5069341;28;20111;-84
2022/01/20 04:43:56;;;;;;;0.80;0.80;;;2.60;99.90;;;;;;5075112;28;20449;-84
2022/01/20 04:46:31;;;;;;;0.80;0.80;;;2.60;99.90;;;;;;5072108;28;20108;-84
2022/01/20 04:59:23;;;;;;;1.00;1.00;;;2.40;99.90;;;;;;5075636;28;20102;-85
2022/01/20 05:01:49;;;;;;;0.80;0.80;;;2.40;99.90;;;;;;5080373;28;20049;-85
2022/01/20 05:04:15;;;;;;;0.90;0.90;;;2.30;99.90;;;;;;5073267;28;20036;-85
2022/01/20 05:06:43;;;;;;;0.80;0.80;;;2.30;99.90;;;;;;5076100;28;20045;-85
2022/01/20 05:09:16;;;;;;;0.82;0.82;;;2.20;99.90;;;;;;5070153;28;20090;-84
2022/01/20 05:11:46;;;;;;;1.15;1.10;;;2.20;99.90;;;;;;5074680;28;20044;-85
2022/01/20 05:14:11;;;;;;;1.00;1.00;;;2.20;99.90;;;;;;5061024;28;20477;-85
2022/01/20 05:16:37;;;;;;;0.98;0.98;;;2.20;99.90;;;;;;5078464;28;20051;-85
2022/01/20 05:19:02;;;;;;;0.80;0.80;;;2.20;99.90;;;;;;5071863;28;20234;-85
2022/01/20 05:21:28;;;;;;;1.20;1.15;;;;;;;;;;5059931;28;20099;-85
2022/01/20 05:23:54;;;;;;;0.80;0.80;;;2.10;99.90;;;;;;5061988;28;20036;-85
2022/01/20 05:26:20;;;;;;;0.80;0.80;;;2.00;99.90;;;;;;5073941;28;20036;-85
2022/01/20 05:28:45;;;;;;;0.80;0.80;;;1.90;99.90;;;;;;5070888;28;20068;-84
2022/01/20 05:31:11;;;;;;;0.80;0.80;;;1.90;99.90;;;;;;5083138;28;20036;-83
2022/01/20 05:33:36;;;;;;;0.80;0.80;;;1.80;99.90;;;;;;5063120;28;20048;-85
2022/01/20 05:36:02;;;;;;;0.80;0.80;;;1.70;99.90;;;;;;5066835;28;20064;-85
2022/01/20 05:38:28;;;;;;;1.25;1.17;;;1.80;99.90;;;;;;5058614;28;20454;-85
2022/01/20 05:40:53;;;;;;;0.90;0.90;;;1.50;99.90;;;;;;5060642;28;20048;-85
2022/01/20 05:43:19;;;;;;;0.80;0.80;;;1.40;99.90;;;;;;5064746;28;20063;-85
2022/01/20 05:45:45;;;;;;;0.75;0.75;;;1.30;99.90;;;;;;5072813;28;20449;-85
2022/01/20 05:48:16;;;;;;;0.80;0.80;;;1.20;99.90;;;;;;5061787;28;20124;-85
2022/01/20 05:50:42;;;;;;;6.53;1.00;;;1.20;99.90;;;;;;5060141;28;20033;-85
2022/01/20 05:53:09;;;;;;;0.90;0.90;;;1.10;99.90;;;;;;5049307;28;20115;-85
2022/01/20 05:55:36;;;;;;;0.77;0.75;;;1.00;99.90;;;;;;5072054;28;20041;-86
2022/01/20 05:58:04;;;;;;;0.95;0.95;;;1.00;99.90;;;;;;5053680;28;20043;-86
2022/01/20 06:00:30;;;;;;;1.38;1.33;;;1.00;99.90;;;;;;5074352;28;20044;-85
2022/01/20 06:05:41;;;;;;;0.90;0.90;;;1.20;99.90;;;;;;5073346;28;20447;-86
2022/01/20 06:08:07;;;;;;;0.80;0.80;;;1.40;99.90;;;;;;5054625;28;20071;-86
2022/01/20 06:10:33;;;;;;;0.93;0.93;;;1.50;99.90;;;;;;5053722;28;20047;-84
2022/01/20 06:12:59;;;;;;;0.93;0.93;;;1.70;99.90;;;;;;5073248;28;20044;-84
2022/01/20 06:15:24;;;;;;;1.00;1.00;;;1.80;99.90;;;;;;5077491;28;20084;-86
2022/01/20 06:17:50;;;;;;;0.80;0.80;;;1.90;99.90;;;;;;5061403;28;20118;-85
2022/01/20 06:20:15;;;;;;;0.80;0.80;;;1.90;99.90;;;;;;5056722;28;20059;-85
2022/01/20 06:22:41;;;;;;;0.80;0.80;;;1.90;99.90;;;;;;5075297;28;20382;-85
2022/01/20 06:25:08;;;;;;;0.70;0.70;;;1.90;99.90;;;;;;5077294;28;20041;-86
2022/01/20 06:27:34;;;;;;;0.90;0.90;;;1.90;99.90;;;;;;5079845;28;20564;-87
2022/01/20 06:30:01;;;;;;;0.88;0.88;;;1.80;99.90;;;;;;5070712;28;20048;-87
2022/01/20 06:32:27;;;;;;;0.82;0.82;;;1.90;99.90;;;;;;5059280;28;20037;-86
2022/01/20 06:34:52;;;;;;;1.20;1.00;;;1.70;99.90;;;;;;5073439;28;20049;-86
2022/01/20 06:37:18;;;;;;;0.82;0.82;;;1.70;99.90;;;;;;5052980;28;20049;-85
2022/01/20 06:39:43;;;;;;;0.80;0.80;;;1.80;99.90;;;;;;5076031;28;20108;-85
2022/01/20 06:42:09;;;;;;;0.90;0.90;;;1.90;99.90;;;;;;5069876;28;20089;-85
2022/01/20 06:44:35;;;;;;;0.90;0.90;;;1.80;99.90;;;;;;5061311;28;20036;-84
2022/01/20 06:47:00;;;;;;;0.90;0.90;;;1.60;99.90;;;;;;5080429;28;20048;-85
2022/01/20 06:49:26;;;;;;;1.10;1.10;;;1.50;99.90;;;;;;5053910;28;20044;-84
2022/01/20 06:51:51;;;;;;;1.30;1.25;;;1.40;99.90;;;;;;5064201;28;20049;-85
2022/01/20 06:54:17;;;;;;;1.30;1.20;;;1.30;99.90;;;;;;5076078;28;20488;-85
2022/01/20 06:56:45;;;;;;;0.90;0.90;;;1.20;99.90;;;;;;5079317;28;20033;-84
2022/01/20 06:59:13;;;;;;;1.50;1.40;;;1.10;99.90;;;;;;5080240;28;20041;-84
2022/01/20 07:01:39;;;;;;;0.90;0.90;;;1.00;99.90;;;;;;5074417;28;20040;-84
2022/01/20 07:04:05;;;;;;;0.90;0.90;;;1.00;99.90;;;;;;5076375;28;20052;-85
2022/01/20 07:06:31;;;;;;;0.90;0.90;;;0.90;99.90;;;;;;5057014;28;20078;-84
2022/01/20 07:08:57;;;;;;;0.90;0.90;;;0.90;99.90;;;;;;5070174;28;20060;-84
2022/01/20 07:11:23;;;;;;;0.90;0.90;;;0.80;99.90;;;;;;5060034;28;20055;-86
2022/01/20 07:13:48;;;;;;;0.90;0.90;;;0.80;99.90;;;;;;5057063;28;20072;-84
2022/01/20 07:16:14;;;;;;;13.80;1.30;;;0.80;99.90;;;;;;5074840;28;20044;-84
2022/01/20 07:18:39;;;;;;;0.90;0.90;;;0.70;99.90;;;;;;5076533;28;20048;-83
2022/01/20 07:21:05;;;;;;;0.70;0.70;;;0.70;99.90;;;;;;5075159;28;20032;-84
2022/01/20 07:23:31;;;;;;;1.10;1.10;;;0.80;99.90;;;;;;5060347;28;20484;-84
2022/01/20 07:25:56;;;;;;;0.80;0.80;;;0.90;99.90;;;;;;5077643;28;20090;-83
2022/01/20 07:28:22;;;;;;;0.90;0.90;;;1.10;99.90;;;;;;5073404;28;20041;-84
2022/01/20 07:30:47;;;;;;;2.97;1.30;;;1.30;99.90;;;;;;5073746;28;20041;-84
2022/01/20 07:33:13;;;;;;;5.00;1.95;;;1.30;99.90;;;;;;5053114;28;20033;-84
2022/01/20 07:35:39;;;;;;;0.80;0.80;;;1.40;99.90;;;;;;5063629;28;20053;-85
2022/01/20 07:38:05;;;;;;;1.30;1.20;;;1.30;99.90;;;;;;5073291;28;20055;-84
2022/01/20 07:40:32;;;;;;;0.90;0.90;;;1.30;99.90;;;;;;5071326;28;20041;-84
2022/01/20 07:42:59;;;;;;;0.88;0.88;;;1.30;99.90;;;;;;5073799;28;20040;-85
2022/01/20 07:45:25;;;;;;;0.80;0.80;;;1.20;99.90;;;;;;5054059;28;20037;-84
2022/01/20 07:47:51;;;;;;;1.33;1.23;;;1.20;99.90;;;;;;5074903;28;20397;-84
2022/01/20 07:50:17;;;;;;;0.80;0.80;;;1.10;99.90;;;;;;5075136;28;20040;-84
2022/01/20 07:52:47;;;;;;;1.10;1.10;;;1.10;99.90;;;;;;5054286;28;20148;-85
2022/01/20 07:55:13;;;;;;;4.05;2.35;;;1.20;99.90;;;;;;5074001;28;20049;-85
2022/01/20 07:57:39;;;;;;;1.00;1.00;;;1.30;99.90;;;;;;5073505;28;20061;-87
2022/01/20 08:00:06;;;;;;;0.90;0.90;;;1.30;99.90;;;;;;5068914;28;20130;-85
2022/01/20 08:02:32;;;;;;;0.90;0.90;;;1.40;99.90;;;;;;5077823;28;20055;-86
2022/01/20 08:04:58;;;;;;;2.88;1.13;;;1.50;99.90;;;;;;5056157;28;20037;-86
2022/01/20 08:07:24;;;;;;;0.90;0.90;;;1.50;99.90;;;;;;5057816;28;20037;-87
2022/01/20 08:09:57;;;;;;;0.90;0.90;;;1.60;99.90;;;;;;5066610;28;20048;-86
2022/01/20 08:12:24;;;;;;;1.23;1.15;;;1.60;99.90;;;;;;5052916;28;20060;-85
2022/01/20 08:14:50;;;;;;;0.80;0.80;;;1.60;99.90;;;;;;5073849;28;20037;-85
2022/01/20 08:17:16;;;;;;;0.90;0.90;;;1.70;99.90;;;;;;5056898;28;20040;-86
2022/01/20 08:19:42;;;;;;;0.80;0.80;;;1.60;99.90;;;;;;5056110;28;20060;-85
2022/01/20 08:22:07;;;;;;;1.80;1.70;;;1.50;99.90;;;;;;5078619;28;20491;-86
2022/01/20 08:24:33;;;;;;;0.80;0.80;;;1.50;99.90;;;;;;5059199;28;20037;-86
2022/01/20 08:26:58;;;;;;;2.22;2.10;;;1.50;99.90;;;;;;5069140;28;20086;-85
2022/01/20 08:29:24;;;;;;;0.80;0.80;;;1.50;99.90;;;;;;5050285;28;20044;-85
2022/01/20 08:31:49;;;;;;;1.25;1.15;;;1.50;99.90;;;;;;5066101;28;20139;-85
2022/01/20 08:34:15;;;;;;;1.50;1.40;;;1.60;99.90;;;;;;5074754;28;20158;-84
2022/01/20 08:36:41;;;;;;;0.90;0.90;;;1.80;99.90;;;;;;5058293;28;20047;-85
2022/01/20 08:41:51;;;;;;;0.85;0.85;;;1.90;99.90;;;;;;5070261;28;20055;-84
2022/01/20 08:44:17;;;;;;;0.90;0.90;;;1.90;99.90;;;;;;5051674;28;20036;-86
2022/01/20 08:46:43;;;;;;;0.80;0.80;;;1.90;99.90;;;;;;5063654;28;20041;-84
2022/01/20 08:49:08;;;;;;;0.82;0.82;;;2.10;99.90;;;;;;5064566;28;20051;-84
2022/01/20 08:51:34;;;;;;;0.80;0.80;;;2.20;99.90;;;;;;5065225;28;20084;-82
2022/01/20 08:54:00;;;;;;;0.80;0.80;;;2.40;99.90;;;;;;5058762;28;20044;-83
2022/01/20 08:56:25;;;;;;;0.85;0.85;;;2.60;99.90;;;;;;5067256;28;20036;-85
2022/01/20 08:58:51;;;;;;;0.90;0.90;;;2.50;99.90;;;;;;5065264;28;20072;-85
2022/01/20 09:01:16;;;;;;;2.28;1.05;;;2.50;99.90;;;;;;5053700;28;20048;-85
2022/01/20 09:03:43;;;;;;;0.90;0.90;;;2.30;99.90;;;;;;5071130;28;20045;-84
2022/01/20 09:06:08;;;;;;;0.80;0.80;;;2.20;99.90;;;;;;5077023;28;20045;-85
2022/01/20 09:08:34;;;;;;;0.90;0.90;;;2.10;99.90;;;;;;5059100;28;20054;-85
2022/01/20 09:11:01;;;;;;;1.90;1.80;;;2.00;99.90;;;;;;5075857;28;20147;-85
2022/01/20 09:16:11;;;;;;;;;;;1.90;99.90;;;;;;5068850;28;20426;-86
2022/01/20 09:18:36;;;;;;;0.85;0.85;;;1.90;99.90;;;;;;5058447;28;19917;-84
2022/01/20 09:21:03;;;;;;;1.00;1.00;;;2.00;99.90;;;;;;5073662;28;20043;-89
2022/01/20 09:23:29;;;;;;;0.90;0.90;;;2.10;99.90;;;;;;5055007;28;20071;-87
2022/01/20 09:25:55;;;;;;;0.70;0.70;;;2.20;99.90;;;;;;5075734;28;20064;-86
2022/01/20 09:28:21;;;;;;;0.85;0.85;;;2.50;99.90;;;;;;5059669;28;20074;-84
2022/01/20 09:30:47;;;;;;;0.80;0.80;;;2.20;99.90;;;;;;5055107;28;20037;-87
2022/01/20 09:33:24;;;;;;;0.80;0.80;;;2.20;99.90;;;;;;5058829;28;20470;-84
2022/01/20 09:35:50;;;;;;;0.90;0.90;;;2.20;99.90;;;;;;5053331;28;20037;-86
2022/01/20 09:38:15;;;;;;;0.80;0.80;;;2.00;99.90;;;;;;5052852;28;20066;-87
2022/01/20 09:40:43;;;;;;;0.90;0.90;;;2.00;99.90;;;;;;5054996;28;20070;-85
2022/01/20 09:43:11;;;;;;;1.30;1.25;;;1.90;99.90;;;;;;5071057;28;20057;-86
2022/01/20 09:45:38;;;;;;;0.80;0.80;;;2.10;99.90;;;;;;5070996;28;20049;-84
2022/01/20 09:48:04;;;;;;;0.80;0.80;;;1.90;99.90;;;;;;5074005;28;20409;-86
2022/01/20 09:50:30;;;;;;;0.90;0.90;;;2.00;99.90;;;;;;5077014;28;20039;-84
2022/01/20 09:53:01;;;;;;;1.00;1.00;;;2.00;99.90;;;;;;5079945;28;20529;-85
2022/01/20 09:55:28;;;;;;;1.15;1.05;;;2.10;99.90;;;;;;5077636;28;20105;-85
2022/01/20 09:57:54;;;;;;;0.80;0.80;;;2.30;99.90;;;;;;5061823;28;20067;-85
2022/01/20 10:00:20;;;;;;;2.67;1.70;;;2.60;99.90;;;;;;5079967;28;20054;-86
2022/01/20 10:03:06;;;;;;;0.80;0.80;;;2.60;99.90;;;;;;5057162;28;20080;-86
2022/01/20 10:05:37;;;;;;;0.90;0.90;;;2.70;99.90;;;;;;5072732;28;20036;-84
2022/01/20 10:08:09;;;;;;;0.88;0.88;;;2.80;99.90;;;;;;5058022;28;20037;-83
2022/01/20 10:10:41;;;;;;;3.50;1.92;;;2.90;99.90;;;;;;5062550;28;20040;-85
2022/01/20 10:13:08;;;;;;;0.88;0.88;;;3.00;99.90;;;;;;5078836;28;20083;-84
2022/01/20 10:15:36;;;;;;;0.80;0.80;;;3.10;99.90;;;;;;5063545;28;20047;-84
2022/01/20 10:18:13;;;;;;;2.05;1.55;;;3.20;99.90;;;;;;5080362;28;20062;-87
2022/01/20 10:21:03;;;;;;;2.15;2.05;;;3.20;99.90;;;;;;5076475;28;20280;-87
2022/01/20 10:23:38;;;;;;;0.80;0.80;;;3.20;99.90;;;;;;5071918;28;20074;-86
2022/01/20 10:26:10;;;;;;;1.15;1.15;;;3.20;99.90;;;;;;5073271;28;20116;-86
2022/01/20 10:28:54;;;;;;;0.85;0.85;;;3.10;99.90;;;;;;5080623;28;20052;-85
2022/01/20 10:31:37;;;;;;;0.73;0.73;;;3.00;99.90;;;;;;5071956;28;20102;-85
2022/01/20 10:34:07;;;;;;;0.80;0.80;;;2.90;99.90;;;;;;5078170;28;20037;-85
2022/01/20 10:36:39;;;;;;;1.40;1.30;;;2.70;99.90;;;;;;5072008;28;20135;-86
2022/01/20 10:39:05;;;;;;;0.77;0.77;;;2.90;99.90;;;;;;5061880;28;20032;-84
2022/01/20 10:41:38;;;;;;;0.80;0.80;;;2.80;99.90;;;;;;5072706;28;20037;-85
2022/01/20 10:44:10;;;;;;;0.80;0.80;;;2.90;99.90;;;;;;5078594;28;20036;-82
2022/01/20 10:46:51;;;;;;;0.80;0.80;;;3.00;99.90;;;;;;5079824;28;20314;-85
2022/01/20 10:49:19;;;;;;;0.80;0.80;;;3.00;99.90;;;;;;5074550;28;20045;-84
2022/01/20 10:51:59;;;;;;;0.98;0.90;;;3.00;99.90;;;;;;5055084;28;20044;-84
2022/01/20 10:54:25;;;;;;;0.80;0.80;;;3.10;99.90;;;;;;5073974;28;20064;-84
2022/01/20 10:56:57;;;;;;;0.80;0.80;;;3.10;99.90;;;;;;5077442;28;20075;-84
2022/01/20 10:59:24;;;;;;;0.80;0.80;;;3.10;99.90;;;;;;5070470;28;20078;-84
2022/01/20 11:02:09;;;;;;;0.88;0.88;;;3.20;99.90;;;;;;5072093;28;20036;-85
2022/01/20 11:04:37;;;;;;;0.70;0.70;;;3.30;99.90;;;;;;5055926;28;20782;-85
2022/01/20 11:07:06;;;;;;;0.80;0.80;;;3.40;99.90;;;;;;5059070;28;20069;-84
2022/01/20 11:09:34;;;;;;;0.80;0.80;;;3.60;99.90;;;;;;5059590;28;20059;-85
2022/01/20 11:12:01;;;;;;;1.08;1.05;;;3.80;99.90;;;;;;5059878;28;20056;-84
2022/01/20 11:14:28;;;;;;;0.70;0.70;;;3.90;99.90;;;;;;5069324;28;20041;-85
2022/01/20 11:16:54;;;;;;;0.80;0.80;;;3.90;99.90;;;;;;5050043;28;20124;-83
2022/01/20 11:19:22;;;;;;;0.80;0.80;;;3.80;99.90;;;;;;5050016;28;20079;-84
2022/01/20 11:21:48;;;;;;;0.80;0.80;;;3.60;99.90;;;;;;5063408;28;20037;-85
2022/01/20 11:24:25;;;;;;;0.80;0.80;;;3.50;99.90;;;;;;5058819;28;20036;-85
2022/01/20 11:27:00;;;;;;;1.33;0.88;;;3.20;99.90;;;;;;5054964;28;20032;-85
2022/01/20 11:29:40;;;;;;;0.88;0.88;;;3.00;99.90;;;;;;5062476;28;20094;-86
2022/01/20 11:32:23;;;;;;;0.90;0.90;;;2.90;99.90;;;;;;5060346;28;20033;-86
2022/01/20 11:35:06;;;;;;;0.82;0.82;;;2.80;99.90;;;;;;5077198;28;20036;-84
2022/01/20 11:37:38;;;;;;;0.80;0.80;;;2.90;99.90;;;;;;5056089;28;20051;-86
2022/01/20 11:40:11;;;;;;;0.80;0.80;;;3.10;99.90;;;;;;5055051;28;20044;-84
2022/01/20 11:42:37;;;;;;;0.80;0.80;;;3.20;99.90;;;;;;5066547;28;20033;-84
2022/01/20 11:45:32;;;;;;;0.80;0.80;;;3.20;99.90;;;;;;5073800;28;20131;-84
2022/01/20 11:48:09;;;;;;;0.80;0.80;;;3.10;99.90;;;;;;5069896;28;20063;-83
2022/01/20 11:50:35;;;;;;;0.77;0.77;;;2.90;99.90;;;;;;5067053;28;20040;-84
2022/01/20 11:53:16;;;;;;;0.98;0.98;;;2.70;99.90;;;;;;5065393;28;20041;-84
2022/01/20 11:55:45;;;;;;;0.80;0.80;;;2.70;99.90;;;;;;5054434;28;20099;-85
2022/01/20 11:58:12;;;;;;;0.80;0.80;;;2.50;99.90;;;;;;5055258;28;20546;-84
2022/01/20 12:00:38;;;;;;;0.80;0.80;;;2.40;99.90;;;;;;5047339;28;20068;-87
2022/01/20 12:03:14;;;;;;;0.82;0.82;;;2.40;99.90;;;;;;5068512;28;20029;-85
2022/01/20 12:05:40;;;;;;;0.90;0.90;;;2.40;99.90;;;;;;5071164;28;20048;-84
2022/01/20 12:08:12;;;;;;;2.55;1.63;;;2.60;99.90;;;;;;5070790;28;20055;-85
2022/01/20 12:10:40;;;;;;;0.80;0.80;;;2.70;99.90;;;;;;5071015;28;20033;-84
2022/01/20 12:13:12;;;;;;;0.80;0.80;;;3.00;99.90;;;;;;5075300;28;20044;-85
2022/01/20 12:15:53;;;;;;;2.92;1.88;;;3.20;99.90;;;;;;5076302;28;20037;-85
2022/01/20 12:18:19;;;;;;;0.80;0.80;;;3.40;99.90;;;;;;5074048;28;20059;-85
2022/01/20 12:20:45;;;;;;;0.95;0.95;;;3.60;99.90;;;;;;5054443;28;20045;-81
2022/01/20 12:23:11;;;;;;;4.65;1.35;;;3.50;99.90;;;;;;5067145;28;20039;-82
2022/01/20 12:25:37;;;;;;;0.82;0.82;;;3.40;99.90;;;;;;5072550;28;20037;-82
2022/01/20 12:28:13;;;;;;;1.08;1.08;;;3.40;99.90;;;;;;5072767;28;20045;-82
2022/01/20 12:30:47;;;;;;;5.45;1.70;;;3.40;99.90;;;;;;5070246;28;20115;-82
2022/01/20 12:33:15;;;;;;;;;;;3.50;99.90;;;;;;5078361;28;20091;-82
2022/01/20 12:35:46;;;;;;;0.95;0.95;;;3.60;99.90;;;;;;5078772;28;19920;-82
2022/01/20 12:38:26;;;;;;;0.85;0.85;;;3.70;99.90;;;;;;5075622;28;20044;-83
2022/01/20 12:41:15;;;;;;;1.00;1.00;;;3.70;99.90;;;;;;5060326;28;20048;-83
2022/01/20 12:43:47;;;;;;;0.70;0.70;;;3.60;99.90;;;;;;5053093;28;20056;-83
2022/01/20 12:46:33;;;;;;;0.77;0.77;;;3.40;99.90;;;;;;5058382;28;20041;-84
2022/01/20 12:49:09;;;;;;;0.80;0.80;;;3.30;99.90;;;;;;5070932;28;20084;-84
2022/01/20 12:51:39;;;;;;;0.70;0.70;;;3.30;99.90;;;;;;5066334;28;20103;-83
2022/01/20 12:54:08;;;;;;;11.82;1.67;;;3.30;99.90;;;;;;5074347;28;20066;-84
2022/01/20 12:56:36;;;;;;;0.80;0.80;;;3.30;99.90;;;;;;5068393;28;20041;-85
2022/01/20 12:59:04;;;;;;;0.98;0.98;;;3.40;99.90;;;;;;5070989;28;20092;-85
2022/01/20 13:01:44;;;;;;;0.77;0.77;;;3.40;99.90;;;;;;5071863;28;20044;-84
2022/01/20 13:04:13;;;;;;;1.08;1.08;;;3.50;99.90;;;;;;5058535;28;20101;-81
2022/01/20 13:06:45;;;;;;;0.82;0.82;;;3.60;99.90;;;;;;5081634;28;20340;-83
2022/01/20 13:09:13;;;;;;;1.10;1.10;;;3.60;99.90;;;;;;5064108;28;20070;-84
2022/01/20 13:11:52;;;;;;;0.80;0.80;;;3.70;99.90;;;;;;5063525;28;20086;-84
2022/01/20 13:14:18;;;;;;;0.70;0.70;;;3.80;99.90;;;;;;5074185;28;20045;-82
2022/01/20 13:16:55;;;;;;;0.70;0.70;;;3.80;99.90;;;;;;5069572;28;20492;-82
2022/01/20 13:19:33;;;;;;;0.70;0.70;;;3.80;99.90;;;;;;5080521;28;20060;-82
2022/01/20 13:22:00;;;;;;;0.80;0.80;;;3.70;99.90;;;;;;5086709;28;20029;-82
2022/01/20 13:24:29;;;;;;;0.70;0.70;;;3.70;99.90;;;;;;5077438;28;20120;-82
2022/01/20 13:26:56;;;;;;;0.80;0.80;;;3.60;99.90;;;;;;5079665;28;20987;-84
2022/01/20 13:29:24;;;;;;;0.80;0.80;;;3.50;99.90;;;;;;5058606;28;20052;-82
2022/01/20 13:31:59;;;;;;;0.80;0.80;;;3.40;99.90;;;;;;5060935;28;20081;-83
2022/01/20 13:34:25;;;;;;;0.80;0.80;;;3.50;99.90;;;;;;5072402;28;20040;-83
2022/01/20 13:36:52;;;;;;;0.90;0.90;;;3.50;99.90;;;;;;5074279;28;20105;-83
2022/01/20 13:39:35;;;;;;;0.80;0.80;;;3.60;99.90;;;;;;5074493;28;20067;-84
2022/01/20 13:42:12;;;;;;;0.70;0.70;;;3.70;99.90;;;;;;5072149;28;20114;-84
2022/01/20 13:47:23;;;;;;;0.80;0.80;;;3.70;99.90;;;;;;5075893;28;20064;-84
2022/01/20 13:49:52;;;;;;;0.82;0.82;;;3.50;99.90;;;;;;5066540;28;20041;-81
2022/01/20 13:52:19;;;;;;;0.80;0.80;;;3.40;99.90;;;;;;5071170;28;20053;-86
2022/01/20 13:54:52;;;;;;;1.33;1.23;;;3.40;99.90;;;;;;5050283;28;20040;-85
2022/01/20 13:57:20;;;;;;;0.75;0.75;;;3.30;99.90;;;;;;5054216;28;20094;-81
2022/01/20 13:59:50;;;;;;;0.98;0.90;;;3.30;99.90;;;;;;5065970;28;20107;-82
2022/01/20 14:02:16;;;;;;;0.70;0.70;;;3.20;99.90;;;;;;5074121;28;20067;-82
2022/01/20 14:04:42;;;;;;;0.80;0.80;;;3.20;99.90;;;;;;5068694;28;20041;-82
2022/01/20 14:07:08;;;;;;;0.70;0.70;;;3.20;99.90;;;;;;5071552;28;20029;-83
2022/01/20 14:09:33;;;;;;;0.80;0.80;;;3.20;99.90;;;;;;5076839;28;20448;-82
2022/01/20 14:11:59;;;;;;;2.08;1.48;;;3.20;99.90;;;;;;5074104;28;20036;-82
2022/01/20 14:14:24;;;;;;;1.55;1.45;;;3.30;99.90;;;;;;5077709;28;20117;-82
2022/01/20 14:16:50;;;;;;;0.80;0.80;;;3.30;99.90;;;;;;5075935;28;20119;-82
2022/01/20 14:19:22;;;;;;;0.80;0.80;;;3.20;99.90;;;;;;5062844;28;20105;-82
2022/01/20 14:21:48;;;;;;;0.80;0.80;;;3.20;99.90;;;;;;5066698;28;20390;-81
2022/01/20 14:24:14;;;;;;;8.40;0.95;;;3.10;99.90;;;;;;5077699;28;20093;-83
2022/01/20 14:26:44;;;;;;;3.30;3.00;;;3.10;99.90;;;;;;5070270;28;20087;-83
2022/01/20 14:29:10;;;;;;;1.00;1.00;;;3.10;99.90;;;;;;5051406;28;20100;-85